Spirit Of Tasmania II — VNSZ — position and weather

sailwx.info

Track history (hours):
 
Tides and Currents Weather Stations Pressure Air Temp Water Temp Dewpoint Dewpoint Depression Visibility Wind Speed Wind Dir Waves Ship Positions

Spirit Of Tasmania II

Last reported at 2020-Apr-02 02:30 UTC. Time now 2020-Apr-02 04:39 UTC.
Position S 41°11' E 146°22'.

Length 194.3 m; beam 25 m; draft 6.2 m.

Type: Ship. MMSI: 503433000.

Date/timePositionNaut miles runAvg speedWind from/ knotsBaromVisibWave heightAir tempDewpointWater temp
2020-Apr-02 02:30S 41°11' E 146°22'0 0.0
2020-Apr-02 01:53S 41°11' E 146°22'0 0.0
2020-Apr-01 21:05S 41°11' E 146°22'0 0.6
2020-Apr-01 21:00S 41°11' E 146°22'0 0.0
2020-Mar-31 22:00S 41°11' E 146°22'0 0.0
2020-Mar-31 20:59S 41°11' E 146°22'0 0.0
2020-Mar-31 20:29S 41°11' E 146°22'4217.1
2020-Mar-31 18:00S 40°32' E 146°01'1 0.0
2020-Mar-30 23:30S 40°31' E 146°00'26 4.4
2020-Mar-30 17:30S 40°55' E 146°14'2423.4
2020-Mar-30 16:30S 40°34' E 146°01'15 0.6
2020-Mar-29 13:15S 40°20' E 145°53'927.6
2020-Mar-29 12:55S 40°28' E 145°58'1127.5
2020-Mar-29 12:31S 40°38' E 146°05'2727.4
2020-Mar-29 11:31S 41°04' E 146°20'49 2.1
2020-Mar-28 12:31S 40°19' E 145°51'1427.3
2020-Mar-28 12:00S 40°32' E 145°59'1427.3
2020-Mar-28 11:31S 40°44' E 146°07'29 9.5
2020-Mar-28 08:26S 41°11' E 146°22'9 4.7
2020-Mar-28 06:30S 41°02' E 146°19'1224.1
2020-Mar-28 06:00S 40°51' E 146°12'22 1.1
2020-Mar-27 10:30S 40°31' E 145°59'1327.1
2020-Mar-27 10:00S 40°43' E 146°07'30 2.4
2020-Mar-26 21:31S 41°11' E 146°22'14 4.1
2020-Mar-26 18:01S 40°57' E 146°16'1223.3
2020-Mar-26 17:31S 40°47' E 146°09'11 0.4
2020-Mar-25 10:31S 40°37' E 146°03'3718.5
2020-Mar-25 08:30S 41°11' E 146°22'0 0.0
2020-Mar-25 08:00S 41°11' E 146°22'0 0.0
2020-Mar-25 05:17S 41°11' E 146°22'0 0.0
2020-Mar-25 01:17S 41°11' E 146°22'0 0.0
2020-Mar-25 01:00S 41°11' E 146°22'0 0.0
2020-Mar-24 23:00S 41°11' E 146°22'1 0.3
2020-Mar-24 18:38S 41°09' E 146°22'2522.5
2020-Mar-24 17:30S 40°46' E 146°11'1020.9
2020-Mar-24 17:00S 40°37' E 146°04'6 0.2
2020-Mar-23 10:33S 40°32' E 145°60'2927.3
2020-Mar-23 09:30S 40°58' E 146°16'14 9.1
2020-Mar-23 08:00S 41°11' E 146°22'0 0.0
2020-Mar-23 05:31S 41°11' E 146°22'0 0.0
2020-Mar-23 04:31S 41°11' E 146°22'  
Track history (hours):
 
Tides and Currents Weather Stations Pressure Air Temp Water Temp Dewpoint Dewpoint Depression Visibility Wind Speed Wind Dir Waves Ship Positions

Spirit Of Tasmania II

Last reported at 2020-Apr-02 02:30 UTC. Time now 2020-Apr-02 04:39 UTC.
Position S 41°11' E 146°22'.

Length 194.3 m; beam 25 m; draft 6.2 m.

Type: Ship. MMSI: 503433000.

Date/timePositionNaut miles runAvg speedWind from/ knotsBaromVisibWave heightAir tempDewpointWater temp
2020-Apr-02 02:30S 41°11' E 146°22'0 0.0
2020-Apr-02 01:53S 41°11' E 146°22'0 0.0
2020-Apr-01 21:05S 41°11' E 146°22'0 0.6
2020-Apr-01 21:00S 41°11' E 146°22'0 0.0
2020-Mar-31 22:00S 41°11' E 146°22'0 0.0
2020-Mar-31 20:59S 41°11' E 146°22'0 0.0
2020-Mar-31 20:29S 41°11' E 146°22'4217.1
2020-Mar-31 18:00S 40°32' E 146°01'1 0.0
2020-Mar-30 23:30S 40°31' E 146°00'26 4.4
2020-Mar-30 17:30S 40°55' E 146°14'2423.4
2020-Mar-30 16:30S 40°34' E 146°01'15 0.6
2020-Mar-29 13:15S 40°20' E 145°53'927.6
2020-Mar-29 12:55S 40°28' E 145°58'1127.5
2020-Mar-29 12:31S 40°38' E 146°05'2727.4
2020-Mar-29 11:31S 41°04' E 146°20'49 2.1
2020-Mar-28 12:31S 40°19' E 145°51'1427.3
2020-Mar-28 12:00S 40°32' E 145°59'1427.3
2020-Mar-28 11:31S 40°44' E 146°07'29 9.5
2020-Mar-28 08:26S 41°11' E 146°22'9 4.7
2020-Mar-28 06:30S 41°02' E 146°19'1224.1
2020-Mar-28 06:00S 40°51' E 146°12'22 1.1
2020-Mar-27 10:30S 40°31' E 145°59'1327.1
2020-Mar-27 10:00S 40°43' E 146°07'30 2.4
2020-Mar-26 21:31S 41°11' E 146°22'14 4.1
2020-Mar-26 18:01S 40°57' E 146°16'1223.3
2020-Mar-26 17:31S 40°47' E 146°09'11 0.4
2020-Mar-25 10:31S 40°37' E 146°03'3718.5
2020-Mar-25 08:30S 41°11' E 146°22'0 0.0
2020-Mar-25 08:00S 41°11' E 146°22'0 0.0
2020-Mar-25 05:17S 41°11' E 146°22'0 0.0
2020-Mar-25 01:17S 41°11' E 146°22'0 0.0
2020-Mar-25 01:00S 41°11' E 146°22'0 0.0
2020-Mar-24 23:00S 41°11' E 146°22'1 0.3
2020-Mar-24 18:38S 41°09' E 146°22'2522.5
2020-Mar-24 17:30S 40°46' E 146°11'1020.9
2020-Mar-24 17:00S 40°37' E 146°04'6 0.2
2020-Mar-23 10:33S 40°32' E 145°60'2927.3
2020-Mar-23 09:30S 40°58' E 146°16'14 9.1
2020-Mar-23 08:00S 41°11' E 146°22'0 0.0
2020-Mar-23 05:31S 41°11' E 146°22'0 0.0
2020-Mar-23 04:31S 41°11' E 146°22'  

Dump ship's entire track history